Time;durP1;ratioP1;P1;durP2;ratioP2;P2;SDS_P1;SDS_P2;PMS_P1;PMS_P2;Temp;Humidity;BMP_temperature;BMP_pressure;BME280_temperature;BME280_humidity;BME280_pressure;Samples;Min_cycle;Max_cycle;Signal;HPM_P1;HPM_P2
2021/09/28 00:00:19;;;;;;;;;;;22.30;59.70;;;;;;484674;246;1044;-47
2021/09/28 00:02:20;;;;;;;;;;;22.20;59.70;;;;;;484485;246;1307;-47
2021/09/28 00:04:22;;;;;;;;;;;22.30;59.70;;;;;;484951;246;1055;-46
2021/09/28 00:06:23;;;;;;;;;;;22.30;59.80;;;;;;484679;246;1163;-47
2021/09/28 00:08:24;;;;;;;;;;;22.30;59.70;;;;;;484697;246;1040;-47
2021/09/28 00:10:26;;;;;;;;;;;22.30;59.80;;;;;;484497;246;1087;-46
2021/09/28 00:12:27;;;;;;;;;;;22.30;59.70;;;;;;484511;246;1293;-47
2021/09/28 00:14:28;;;;;;;;;;;22.30;59.70;;;;;;485022;246;1145;-47
2021/09/28 00:16:30;;;;;;;;;;;22.30;59.70;;;;;;484626;246;1426;-47
2021/09/28 00:18:31;;;;;;;;;;;22.20;59.80;;;;;;484996;246;2125;-47
2021/09/28 00:20:37;;;;;;;;;;;22.20;59.80;;;;;;484927;246;1044;-47
2021/09/28 00:22:34;;;;;;;;;;;22.20;59.80;;;;;;484195;246;2244;-46
2021/09/28 00:24:35;;;;;;;;;;;22.20;59.90;;;;;;484608;246;1088;-47
2021/09/28 00:26:36;;;;;;;;;;;22.30;59.80;;;;;;484494;246;1221;-47
2021/09/28 00:28:38;;;;;;;;;;;22.30;59.80;;;;;;484532;246;1400;-47
2021/09/28 00:30:39;;;;;;;;;;;22.30;59.80;;;;;;484622;246;1050;-47
2021/09/28 00:32:41;;;;;;;;;;;22.20;59.70;;;;;;484484;246;1197;-47
2021/09/28 00:34:42;;;;;;;;;;;22.30;59.80;;;;;;484867;246;1046;-47
2021/09/28 00:36:43;;;;;;;;;;;22.20;59.70;;;;;;484621;246;2306;-47
2021/09/28 00:38:44;;;;;;;;;;;22.20;59.70;;;;;;484631;246;2140;-47
2021/09/28 00:40:45;;;;;;;;;;;22.30;59.80;;;;;;484783;246;1171;-46
2021/09/28 00:42:47;;;;;;;;;;;22.30;59.80;;;;;;484639;246;1216;-47
2021/09/28 00:44:48;;;;;;;;;;;22.30;59.80;;;;;;484626;246;1097;-47
2021/09/28 00:46:49;;;;;;;;;;;22.20;59.80;;;;;;484532;246;1243;-47
2021/09/28 00:48:51;;;;;;;;;;;22.30;59.80;;;;;;484745;246;1120;-47
2021/09/28 00:50:53;;;;;;;;;;;22.30;59.80;;;;;;484527;246;1416;-47
2021/09/28 00:52:53;;;;;;;;;;;22.30;59.70;;;;;;484551;246;2117;-47
2021/09/28 00:54:55;;;;;;;;;;;22.30;59.70;;;;;;484568;246;1056;-47
2021/09/28 00:56:56;;;;;;;;;;;22.30;59.80;;;;;;484545;246;1983;-46
2021/09/28 00:59:00;;;;;;;;;;;22.30;59.80;;;;;;484930;246;2121;-47
2021/09/28 01:01:01;;;;;;;;;;;22.30;59.70;;;;;;484225;246;2343;-47
2021/09/28 01:03:01;;;;;;;;;;;22.30;59.70;;;;;;484375;246;2290;-47
2021/09/28 01:05:03;;;;;;;;;;;22.20;59.80;;;;;;484531;246;1098;-47
2021/09/28 01:07:04;;;;;;;;;;;22.20;59.90;;;;;;484494;246;1378;-47
2021/09/28 01:09:05;;;;;;;;;;;22.20;59.80;;;;;;484561;246;1187;-47
2021/09/28 01:11:07;;;;;;;;;;;22.20;59.80;;;;;;484488;246;1084;-47
2021/09/28 01:13:08;;;;;;;;;;;22.30;59.80;;;;;;484686;246;1250;-47
2021/09/28 01:15:09;;;;;;;;;;;22.30;59.80;;;;;;484644;246;1085;-47
2021/09/28 01:17:10;;;;;;;;;;;22.30;59.70;;;;;;484585;246;1200;-47
2021/09/28 01:19:12;;;;;;;;;;;22.30;59.70;;;;;;484579;246;2116;-47
2021/09/28 01:21:13;;;;;;;;;;;22.30;59.80;;;;;;484575;246;1114;-47
2021/09/28 01:23:14;;;;;;;;;;;22.30;59.80;;;;;;484928;246;1110;-47
2021/09/28 01:25:16;;;;;;;;;;;22.30;59.70;;;;;;484840;246;1269;-47
2021/09/28 01:27:17;;;;;;;;;;;22.30;59.80;;;;;;484425;246;1402;-47
2021/09/28 01:29:20;;;;;;;;;;;22.30;59.70;;;;;;484930;246;1077;-46
2021/09/28 01:31:23;;;;;;;;;;;22.30;59.70;;;;;;484648;246;1438;-47
2021/09/28 01:33:23;;;;;;;;;;;22.30;59.70;;;;;;484499;246;2171;-47
2021/09/28 01:35:24;;;;;;;;;;;22.30;59.70;;;;;;484596;246;1058;-47
2021/09/28 01:37:25;;;;;;;;;;;22.30;59.70;;;;;;484683;246;1289;-47
2021/09/28 01:39:26;;;;;;;;;;;22.20;59.70;;;;;;484662;246;2124;-47
2021/09/28 01:41:28;;;;;;;;;;;22.30;59.70;;;;;;484828;246;1155;-46
2021/09/28 01:43:29;;;;;;;;;;;22.30;59.70;;;;;;484504;246;1238;-46
2021/09/28 01:45:30;;;;;;;;;;;22.30;59.60;;;;;;484856;246;1043;-46
2021/09/28 01:47:32;;;;;;;;;;;22.30;59.70;;;;;;484784;246;1195;-47
2021/09/28 01:49:34;;;;;;;;;;;22.30;59.70;;;;;;485000;246;2361;-47
2021/09/28 01:51:34;;;;;;;;;;;22.30;59.70;;;;;;484475;246;2433;-47
2021/09/28 01:53:36;;;;;;;;;;;22.30;59.60;;;;;;484539;246;1025;-47
2021/09/28 01:55:37;;;;;;;;;;;22.30;59.80;;;;;;484675;246;1032;-47
2021/09/28 01:57:38;;;;;;;;;;;22.30;59.80;;;;;;484456;246;1173;-47
2021/09/28 01:59:40;;;;;;;;;;;22.30;59.70;;;;;;484565;246;2133;-47
2021/09/28 02:01:41;;;;;;;;;;;22.20;59.80;;;;;;484765;246;1500;-47
2021/09/28 02:03:42;;;;;;;;;;;22.20;59.80;;;;;;484581;246;1297;-47
2021/09/28 02:05:44;;;;;;;;;;;22.30;59.90;;;;;;484730;246;1187;-47
2021/09/28 02:07:45;;;;;;;;;;;22.20;59.80;;;;;;485007;246;1409;-47
2021/09/28 02:09:46;;;;;;;;;;;22.20;59.80;;;;;;484818;246;1165;-47
2021/09/28 02:11:48;;;;;;;;;;;22.20;59.80;;;;;;484712;246;1380;-46
2021/09/28 02:13:50;;;;;;;;;;;22.30;59.80;;;;;;484512;246;1278;-47
2021/09/28 02:15:51;;;;;;;;;;;22.30;59.70;;;;;;484699;246;2503;-47
2021/09/28 02:17:52;;;;;;;;;;;22.30;59.70;;;;;;484766;246;1297;-47
2021/09/28 02:19:53;;;;;;;;;;;22.20;59.80;;;;;;484666;246;2125;-47
2021/09/28 02:21:55;;;;;;;;;;;22.30;59.80;;;;;;484647;246;1096;-47
2021/09/28 02:23:56;;;;;;;;;;;22.30;59.80;;;;;;484658;246;1076;-46
2021/09/28 02:25:57;;;;;;;;;;;22.20;59.80;;;;;;484668;246;1079;-47
2021/09/28 02:27:59;;;;;;;;;;;22.20;59.80;;;;;;484550;246;1267;-47
2021/09/28 02:30:00;;;;;;;;;;;22.30;59.80;;;;;;484817;246;1114;-47
2021/09/28 02:32:02;;;;;;;;;;;22.20;59.90;;;;;;484444;246;1291;-47
2021/09/28 02:34:06;;;;;;;;;;;22.20;59.80;;;;;;484634;246;1207;-47
2021/09/28 02:36:05;;;;;;;;;;;22.20;59.90;;;;;;484609;246;2246;-47
2021/09/28 02:38:06;;;;;;;;;;;22.20;59.90;;;;;;484449;246;1283;-47
2021/09/28 02:40:08;;;;;;;;;;;22.20;59.90;;;;;;484493;246;2129;-47
2021/09/28 02:42:09;;;;;;;;;;;22.20;59.80;;;;;;484472;246;1484;-47
2021/09/28 02:44:10;;;;;;;;;;;22.30;59.80;;;;;;484730;246;1149;-47
2021/09/28 02:46:12;;;;;;;;;;;22.30;59.70;;;;;;484556;246;1078;-47
2021/09/28 02:48:13;;;;;;;;;;;22.20;59.70;;;;;;484501;246;1301;-47
2021/09/28 02:50:14;;;;;;;;;;;22.20;59.70;;;;;;484722;246;1292;-47
2021/09/28 02:52:15;;;;;;;;;;;22.30;59.80;;;;;;484923;246;1297;-47
2021/09/28 02:54:17;;;;;;;;;;;22.20;59.80;;;;;;484539;246;1132;-47
2021/09/28 02:56:18;;;;;;;;;;;22.20;59.80;;;;;;484696;246;1170;-47
2021/09/28 02:58:19;;;;;;;;;;;22.20;59.80;;;;;;484450;246;1330;-47
2021/09/28 03:00:21;;;;;;;;;;;22.20;59.80;;;;;;484716;246;2192;-47
2021/09/28 03:02:22;;;;;;;;;;;22.30;59.80;;;;;;484586;246;1357;-47
2021/09/28 03:04:23;;;;;;;;;;;22.30;59.70;;;;;;484689;246;1162;-47
2021/09/28 03:06:25;;;;;;;;;;;22.20;59.80;;;;;;484812;246;1205;-46
2021/09/28 03:08:26;;;;;;;;;;;22.20;59.80;;;;;;484696;246;1067;-47
2021/09/28 03:10:27;;;;;;;;;;;22.20;59.80;;;;;;484513;246;1074;-47
2021/09/28 03:12:29;;;;;;;;;;;22.20;59.90;;;;;;484610;246;1604;-47
2021/09/28 03:14:30;;;;;;;;;;;22.20;60.10;;;;;;484472;246;1077;-47
2021/09/28 03:16:31;;;;;;;;;;;22.20;59.90;;;;;;484754;246;1098;-47
2021/09/28 03:18:33;;;;;;;;;;;22.20;59.90;;;;;;484566;246;1193;-47
2021/09/28 03:20:35;;;;;;;;;;;22.20;60.00;;;;;;484704;246;2116;-47
2021/09/28 03:22:35;;;;;;;;;;;22.10;60.00;;;;;;484667;246;2468;-47
2021/09/28 03:24:37;;;;;;;;;;;22.20;59.90;;;;;;484679;246;1021;-47
2021/09/28 03:26:38;;;;;;;;;;;22.20;59.90;;;;;;484802;246;1300;-47
2021/09/28 03:28:39;;;;;;;;;;;22.20;59.90;;;;;;484536;246;1376;-46
2021/09/28 03:30:40;;;;;;;;;;;22.20;60.00;;;;;;484960;246;1177;-47
2021/09/28 03:32:42;;;;;;;;;;;22.20;59.90;;;;;;484697;246;1157;-47
2021/09/28 03:34:43;;;;;;;;;;;22.20;59.90;;;;;;484670;246;1194;-47
2021/09/28 03:36:44;;;;;;;;;;;22.20;59.90;;;;;;484664;246;1186;-47
2021/09/28 03:38:46;;;;;;;;;;;22.20;59.90;;;;;;484609;246;1080;-47
2021/09/28 03:40:47;;;;;;;;;;;22.20;59.90;;;;;;484556;246;2189;-47
2021/09/28 03:42:49;;;;;;;;;;;22.20;59.80;;;;;;484508;246;1193;-46
2021/09/28 03:44:50;;;;;;;;;;;22.20;59.80;;;;;;484866;246;1242;-47
2021/09/28 03:46:51;;;;;;;;;;;22.20;59.80;;;;;;484485;246;1282;-47
2021/09/28 03:48:53;;;;;;;;;;;22.20;59.80;;;;;;484550;246;1307;-47
2021/09/28 03:50:54;;;;;;;;;;;22.20;59.80;;;;;;484521;246;1462;-47
2021/09/28 03:52:55;;;;;;;;;;;22.20;59.80;;;;;;484597;246;1051;-46
2021/09/28 03:54:56;;;;;;;;;;;22.20;59.90;;;;;;484529;246;1192;-47
2021/09/28 03:56:58;;;;;;;;;;;22.30;59.80;;;;;;484690;246;1158;-47
2021/09/28 03:58:59;;;;;;;;;;;22.20;59.80;;;;;;484517;246;1173;-47
2021/09/28 04:01:00;;;;;;;;;;;22.20;59.80;;;;;;484474;246;2121;-47
2021/09/28 04:03:02;;;;;;;;;;;22.20;59.90;;;;;;484425;246;1160;-47
2021/09/28 04:05:03;;;;;;;;;;;22.20;59.70;;;;;;484592;246;1249;-47
2021/09/28 04:07:04;;;;;;;;;;;22.20;59.80;;;;;;484646;246;1169;-47
2021/09/28 04:09:06;;;;;;;;;;;22.20;59.80;;;;;;484875;246;1215;-47
2021/09/28 04:11:07;;;;;;;;;;;22.20;59.80;;;;;;484556;246;1230;-47
2021/09/28 04:13:08;;;;;;;;;;;22.20;59.90;;;;;;484481;246;1198;-47
2021/09/28 04:15:10;;;;;;;;;;;22.20;60.00;;;;;;484619;246;1048;-47
2021/09/28 04:17:11;;;;;;;;;;;22.20;59.90;;;;;;484500;246;1127;-47
2021/09/28 04:19:12;;;;;;;;;;;22.10;59.90;;;;;;484611;246;1287;-47
2021/09/28 04:21:14;;;;;;;;;;;22.20;59.90;;;;;;484428;246;2195;-46
2021/09/28 04:23:15;;;;;;;;;;;22.30;59.80;;;;;;484594;246;1096;-46
2021/09/28 04:25:16;;;;;;;;;;;22.20;59.80;;;;;;484533;246;1092;-47
2021/09/28 04:27:18;;;;;;;;;;;22.20;59.90;;;;;;484436;246;1184;-47
2021/09/28 04:29:19;;;;;;;;;;;22.20;59.90;;;;;;484747;246;1042;-47
2021/09/28 04:31:20;;;;;;;;;;;22.20;59.90;;;;;;484528;246;1048;-47
2021/09/28 04:33:22;;;;;;;;;;;22.20;60.00;;;;;;484423;246;1192;-47
2021/09/28 04:35:23;;;;;;;;;;;22.20;60.00;;;;;;484533;246;1217;-46
2021/09/28 04:37:24;;;;;;;;;;;22.20;60.00;;;;;;484373;246;1245;-47
2021/09/28 04:39:25;;;;;;;;;;;22.20;59.90;;;;;;484487;246;1091;-47
2021/09/28 04:41:27;;;;;;;;;;;22.20;59.80;;;;;;484277;246;2199;-46
2021/09/28 04:43:28;;;;;;;;;;;22.20;59.90;;;;;;484324;246;1285;-47
2021/09/28 04:45:29;;;;;;;;;;;22.20;59.90;;;;;;484292;246;1260;-47
2021/09/28 04:47:31;;;;;;;;;;;22.20;60.00;;;;;;484341;246;1148;-46
2021/09/28 04:49:32;;;;;;;;;;;22.20;60.10;;;;;;484529;246;1163;-47
2021/09/28 04:51:33;;;;;;;;;;;22.20;60.00;;;;;;484342;246;1302;-46
2021/09/28 04:53:35;;;;;;;;;;;22.20;59.90;;;;;;484484;246;1200;-47
2021/09/28 04:55:36;;;;;;;;;;;22.20;59.90;;;;;;484309;246;1334;-47
2021/09/28 04:57:37;;;;;;;;;;;22.20;59.90;;;;;;484246;246;1384;-47
2021/09/28 04:59:39;;;;;;;;;;;22.20;59.90;;;;;;484463;246;1166;-47
2021/09/28 05:01:40;;;;;;;;;;;22.20;60.00;;;;;;484308;246;2206;-47
2021/09/28 05:03:41;;;;;;;;;;;22.20;60.00;;;;;;484314;246;1210;-47
2021/09/28 05:05:43;;;;;;;;;;;22.20;59.90;;;;;;484315;246;1216;-47
2021/09/28 05:07:44;;;;;;;;;;;22.20;59.90;;;;;;484272;246;1201;-47
2021/09/28 05:09:45;;;;;;;;;;;22.20;60.00;;;;;;484302;246;1069;-46
2021/09/28 05:11:47;;;;;;;;;;;22.20;60.00;;;;;;484373;246;1430;-46
2021/09/28 05:13:48;;;;;;;;;;;22.20;60.00;;;;;;484325;246;1048;-47
2021/09/28 05:15:49;;;;;;;;;;;22.20;59.90;;;;;;484159;246;1108;-47
2021/09/28 05:17:51;;;;;;;;;;;22.20;59.80;;;;;;484073;246;1168;-47
2021/09/28 05:19:52;;;;;;;;;;;22.20;59.90;;;;;;484204;246;2148;-47
2021/09/28 05:21:53;;;;;;;;;;;22.20;60.00;;;;;;484130;246;1166;-47
2021/09/28 05:23:55;;;;;;;;;;;22.20;60.00;;;;;;484208;246;1193;-47
2021/09/28 05:25:56;;;;;;;;;;;22.20;59.90;;;;;;484241;246;1079;-47
2021/09/28 05:27:57;;;;;;;;;;;22.20;60.00;;;;;;484420;246;1324;-47
2021/09/28 05:29:59;;;;;;;;;;;22.20;60.00;;;;;;484186;246;1168;-47
2021/09/28 05:32:00;;;;;;;;;;;22.20;59.90;;;;;;484052;246;1168;-47
2021/09/28 05:34:01;;;;;;;;;;;22.20;59.80;;;;;;484097;246;1189;-47
2021/09/28 05:36:03;;;;;;;;;;;22.20;59.90;;;;;;484101;246;1182;-47
2021/09/28 05:38:04;;;;;;;;;;;22.20;60.00;;;;;;484079;246;1295;-47
2021/09/28 05:40:05;;;;;;;;;;;22.20;60.00;;;;;;484048;246;2125;-47
2021/09/28 05:42:07;;;;;;;;;;;22.20;59.90;;;;;;483949;246;1226;-46
2021/09/28 05:44:08;;;;;;;;;;;22.20;59.80;;;;;;484072;246;1411;-47
2021/09/28 05:46:09;;;;;;;;;;;22.20;60.00;;;;;;483948;246;1215;-47
2021/09/28 05:48:11;;;;;;;;;;;22.20;60.00;;;;;;484038;246;1233;-47
2021/09/28 05:50:12;;;;;;;;;;;22.20;60.00;;;;;;483993;246;1222;-47
2021/09/28 05:52:14;;;;;;;;;;;22.20;59.90;;;;;;483979;246;1261;-47
2021/09/28 05:54:18;;;;;;;;;;;22.20;60.00;;;;;;484043;246;1126;-47
2021/09/28 05:56:16;;;;;;;;;;;22.20;60.00;;;;;;483793;246;2300;-47
2021/09/28 05:58:18;;;;;;;;;;;22.20;60.00;;;;;;484003;246;1106;-47
2021/09/28 06:00:19;;;;;;;;;;;22.10;59.90;;;;;;484157;246;2164;-47
2021/09/28 06:02:20;;;;;;;;;;;22.10;60.00;;;;;;483953;246;1395;-47
2021/09/28 06:04:22;;;;;;;;;;;22.20;59.90;;;;;;483838;246;1379;-47
2021/09/28 06:06:26;;;;;;;;;;;22.20;59.90;;;;;;483931;246;1229;-47
2021/09/28 06:08:24;;;;;;;;;;;22.20;59.90;;;;;;483741;246;2277;-47
2021/09/28 06:10:26;;;;;;;;;;;22.10;59.90;;;;;;484045;246;1115;-47
2021/09/28 06:12:27;;;;;;;;;;;22.20;59.90;;;;;;483875;246;1092;-47
2021/09/28 06:14:28;;;;;;;;;;;22.20;59.90;;;;;;483899;246;1082;-47
2021/09/28 06:16:30;;;;;;;;;;;22.20;59.90;;;;;;484034;246;1231;-47
2021/09/28 06:18:31;;;;;;;;;;;22.20;59.90;;;;;;483963;246;1351;-47
2021/09/28 06:20:32;;;;;;;;;;;22.20;60.00;;;;;;483774;246;2211;-47
2021/09/28 06:22:34;;;;;;;;;;;22.10;59.90;;;;;;483550;246;1339;-47
2021/09/28 06:24:35;;;;;;;;;;;22.20;59.90;;;;;;483709;246;1165;-47
2021/09/28 06:26:36;;;;;;;;;;;22.20;59.90;;;;;;484008;246;1225;-47
2021/09/28 06:28:37;;;;;;;;;;;22.20;59.90;;;;;;484145;246;1066;-47
2021/09/28 06:30:39;;;;;;;;;;;22.20;59.80;;;;;;484391;246;1049;-47
2021/09/28 06:32:40;;;;;;;;;;;22.20;59.90;;;;;;484060;246;1211;-46
2021/09/28 06:34:41;;;;;;;;;;;22.20;59.90;;;;;;484477;246;944;-46
2021/09/28 06:36:43;;;;;;;;;;;22.20;59.90;;;;;;483894;246;1192;-46
2021/09/28 06:38:44;;;;;;;;;;;22.20;59.90;;;;;;484429;246;1118;-46
2021/09/28 06:40:45;;;;;;;;;;;22.20;59.80;;;;;;484544;246;2179;-47
2021/09/28 06:42:47;;;;;;;;;;;22.20;60.00;;;;;;483901;246;1245;-46
2021/09/28 06:44:48;;;;;;;;;;;22.10;60.00;;;;;;483565;246;1077;-46
2021/09/28 06:46:49;;;;;;;;;;;22.20;60.00;;;;;;483455;246;1222;-46
2021/09/28 06:48:51;;;;;;;;;;;22.20;60.10;;;;;;483498;246;1195;-46
2021/09/28 06:50:52;;;;;;;;;;;22.20;60.10;;;;;;483725;246;1371;-46
2021/09/28 06:52:54;;;;;;;;;;;22.20;60.00;;;;;;484535;246;1056;-46
2021/09/28 06:54:55;;;;;;;;;;;22.20;60.00;;;;;;483707;246;1092;-46
2021/09/28 06:56:56;;;;;;;;;;;22.20;60.10;;;;;;483883;246;1114;-47
2021/09/28 06:58:58;;;;;;;;;;;22.20;60.00;;;;;;484027;246;874;-46
2021/09/28 07:00:59;;;;;;;;;;;22.20;59.90;;;;;;484385;246;2191;-46
2021/09/28 07:03:00;;;;;;;;;;;22.20;60.00;;;;;;484384;246;1146;-46
2021/09/28 07:05:01;;;;;;;;;;;22.20;60.00;;;;;;484048;246;887;-46
2021/09/28 07:07:03;;;;;;;;;;;22.20;59.90;;;;;;484051;246;1540;-46
2021/09/28 07:09:04;;;;;;;;;;;22.20;59.80;;;;;;484553;246;867;-46
2021/09/28 07:11:05;;;;;;;;;;;22.20;59.90;;;;;;483747;246;1346;-45
2021/09/28 07:13:07;;;;;;;;;;;22.20;59.80;;;;;;483712;246;1123;-46
2021/09/28 07:15:08;;;;;;;;;;;22.20;59.90;;;;;;483734;246;1115;-46
2021/09/28 07:17:09;;;;;;;;;;;22.20;60.00;;;;;;483659;246;1395;-46
2021/09/28 07:19:11;;;;;;;;;;;22.20;60.00;;;;;;483672;246;1182;-46
2021/09/28 07:21:12;;;;;;;;;;;22.10;60.00;;;;;;483531;246;2204;-46
2021/09/28 07:23:15;;;;;;;;;;;22.20;59.90;;;;;;483544;246;1337;-45
2021/09/28 07:25:16;;;;;;;;;;;22.20;59.90;;;;;;483434;246;1280;-46
2021/09/28 07:27:17;;;;;;;;;;;22.20;60.00;;;;;;483360;246;1307;-46
2021/09/28 07:29:19;;;;;;;;;;;22.20;59.90;;;;;;483449;246;1124;-46
2021/09/28 07:31:20;;;;;;;;;;;22.20;59.80;;;;;;483422;246;1326;-46
2021/09/28 07:33:21;;;;;;;;;;;22.20;59.90;;;;;;483528;246;1222;-46
2021/09/28 07:35:23;;;;;;;;;;;22.20;60.00;;;;;;483517;246;1136;-47
2021/09/28 07:37:27;;;;;;;;;;;22.20;60.00;;;;;;483522;246;1366;-47
2021/09/28 07:39:27;;;;;;;;;;;22.10;59.90;;;;;;484309;246;2203;-46
2021/09/28 07:41:28;;;;;;;;;;;22.20;60.00;;;;;;484192;246;2184;-46
2021/09/28 07:43:29;;;;;;;;;;;22.20;60.00;;;;;;483746;246;1029;-46
2021/09/28 07:45:31;;;;;;;;;;;22.20;60.00;;;;;;483904;246;886;-46
2021/09/28 07:47:32;;;;;;;;;;;22.20;60.00;;;;;;484350;246;917;-46
2021/09/28 07:49:34;;;;;;;;;;;22.20;60.00;;;;;;483902;246;1063;-46
2021/09/28 07:51:35;;;;;;;;;;;22.20;60.00;;;;;;484030;246;1208;-46
2021/09/28 07:53:36;;;;;;;;;;;22.20;60.00;;;;;;483821;246;984;-46
2021/09/28 07:55:38;;;;;;;;;;;22.20;60.00;;;;;;483908;246;865;-47
2021/09/28 07:57:39;;;;;;;;;;;22.20;60.00;;;;;;484281;246;1083;-45
2021/09/28 07:59:40;;;;;;;;;;;22.30;60.00;;;;;;484278;246;1095;-47
2021/09/28 08:01:42;;;;;;;;;;;22.20;59.90;;;;;;484308;246;2207;-47
2021/09/28 08:03:43;;;;;;;;;;;22.30;60.10;;;;;;484381;246;899;-46
2021/09/28 08:05:44;;;;;;;;;;;22.30;60.00;;;;;;483905;246;1125;-46
2021/09/28 08:07:46;;;;;;;;;;;22.30;60.10;;;;;;483944;246;1178;-46
2021/09/28 08:09:47;;;;;;;;;;;22.30;60.10;;;;;;483878;246;1415;-47
2021/09/28 08:11:48;;;;;;;;;;;22.30;60.20;;;;;;483621;246;872;-46
2021/09/28 08:13:49;;;;;;;;;;;22.30;60.20;;;;;;483893;246;925;-47
2021/09/28 08:15:51;;;;;;;;;;;22.40;60.20;;;;;;484218;246;1517;-47
2021/09/28 08:17:52;;;;;;;;;;;22.40;60.30;;;;;;483312;246;1264;-46
2021/09/28 08:19:54;;;;;;;;;;;22.40;60.20;;;;;;483395;246;1151;-46
2021/09/28 08:21:55;;;;;;;;;;;22.40;60.20;;;;;;483430;246;2187;-46
2021/09/28 08:23:56;;;;;;;;;;;22.40;60.30;;;;;;483555;246;1160;-46
2021/09/28 08:29:08;;;;;;;;;;;22.30;60.30;;;;;;483519;246;1144;-46
2021/09/28 08:30:22;;;;;;;;;;;22.40;60.20;;;;;;483383;246;1966;-46
2021/09/28 08:32:23;;;;;;;;;;;22.40;60.10;;;;;;483333;246;1338;-46
2021/09/28 08:34:25;;;;;;;;;;;22.40;60.10;;;;;;483289;246;1114;-47
2021/09/28 08:36:26;;;;;;;;;;;22.40;60.10;;;;;;483332;246;1393;-46
2021/09/28 08:38:28;;;;;;;;;;;22.40;60.10;;;;;;483362;246;1484;-47
2021/09/28 08:40:29;;;;;;;;;;;22.40;60.10;;;;;;483281;246;1139;-46
2021/09/28 08:42:31;;;;;;;;;;;22.40;60.10;;;;;;483269;246;2184;-47
2021/09/28 08:44:32;;;;;;;;;;;22.40;60.00;;;;;;483411;246;1462;-46
2021/09/28 08:46:33;;;;;;;;;;;22.40;60.00;;;;;;483502;246;1323;-46
2021/09/28 08:48:34;;;;;;;;;;;22.40;60.00;;;;;;484332;246;1156;-45
2021/09/28 08:50:38;;;;;;;;;;;22.40;60.00;;;;;;483488;246;1052;-46
2021/09/28 08:52:37;;;;;;;;;;;22.50;60.00;;;;;;483208;246;2334;-46
2021/09/28 08:54:39;;;;;;;;;;;22.50;60.00;;;;;;483414;246;1371;-46
2021/09/28 08:56:40;;;;;;;;;;;22.50;60.00;;;;;;483205;246;2087;-46
2021/09/28 08:58:42;;;;;;;;;;;22.40;60.00;;;;;;483286;246;1301;-46
2021/09/28 09:00:43;;;;;;;;;;;22.50;60.10;;;;;;483344;246;1264;-47
2021/09/28 09:02:44;;;;;;;;;;;22.50;60.00;;;;;;483316;246;2184;-46
2021/09/28 09:04:47;;;;;;;;;;;22.50;60.10;;;;;;483451;246;1099;-47
2021/09/28 09:06:47;;;;;;;;;;;22.40;60.10;;;;;;483314;246;2441;-46
2021/09/28 09:08:49;;;;;;;;;;;22.40;60.10;;;;;;483360;246;1062;-46
2021/09/28 09:10:50;;;;;;;;;;;22.40;60.20;;;;;;483409;246;1216;-46
2021/09/28 09:12:52;;;;;;;;;;;22.40;60.30;;;;;;483415;246;1184;-46
2021/09/28 09:14:53;;;;;;;;;;;22.30;60.30;;;;;;483490;246;1097;-46
2021/09/28 09:16:54;;;;;;;;;;;22.40;60.30;;;;;;483461;246;1221;-46
2021/09/28 09:18:56;;;;;;;;;;;22.30;60.30;;;;;;483372;246;1198;-46
2021/09/28 09:20:57;;;;;;;;;;;22.40;60.30;;;;;;483468;246;1128;-47
2021/09/28 09:22:58;;;;;;;;;;;22.40;60.10;;;;;;483423;246;2180;-47
2021/09/28 09:25:00;;;;;;;;;;;22.30;60.20;;;;;;483439;246;1126;-47
2021/09/28 09:27:01;;;;;;;;;;;22.30;60.20;;;;;;483254;246;1333;-47
2021/09/28 09:29:03;;;;;;;;;;;22.30;60.30;;;;;;483364;246;1087;-47
2021/09/28 09:31:04;;;;;;;;;;;22.30;60.40;;;;;;483368;246;1140;-47
2021/09/28 09:33:05;;;;;;;;;;;22.30;60.40;;;;;;483418;246;1121;-47
2021/09/28 09:35:07;;;;;;;;;;;22.30;60.30;;;;;;483372;246;1106;-47
2021/09/28 09:37:10;;;;;;;;;;;22.30;60.30;;;;;;483365;246;1431;-47
2021/09/28 09:39:10;;;;;;;;;;;22.30;60.30;;;;;;483554;246;1946;-46
2021/09/28 09:41:11;;;;;;;;;;;22.40;60.30;;;;;;483430;246;1225;-46
2021/09/28 09:43:12;;;;;;;;;;;22.30;60.30;;;;;;483273;246;2196;-46
2021/09/28 09:45:14;;;;;;;;;;;22.30;60.30;;;;;;483449;246;1096;-46
2021/09/28 09:47:15;;;;;;;;;;;22.30;60.30;;;;;;483497;246;1160;-46
2021/09/28 09:49:16;;;;;;;;;;;22.40;60.30;;;;;;483541;246;1210;-45
2021/09/28 09:51:17;;;;;;;;;;;22.30;60.30;;;;;;483478;246;1278;-46
2021/09/28 09:53:22;;;;;;;;;;;22.40;60.40;;;;;;483494;246;1150;-46
2021/09/28 09:55:22;;;;;;;;;;;22.40;60.20;;;;;;483516;246;1723;-46
2021/09/28 09:57:23;;;;;;;;;;;22.40;60.20;;;;;;483595;246;1355;-46
2021/09/28 09:59:24;;;;;;;;;;;22.40;60.20;;;;;;483653;246;1099;-46
2021/09/28 10:01:26;;;;;;;;;;;22.40;60.10;;;;;;483426;246;1311;-45
2021/09/28 10:03:28;;;;;;;;;;;22.50;60.00;;;;;;483501;246;2144;-46
2021/09/28 10:05:29;;;;;;;;;;;22.50;60.00;;;;;;483332;246;1095;-46
2021/09/28 10:07:30;;;;;;;;;;;22.50;60.00;;;;;;483212;246;1160;-46
2021/09/28 10:09:32;;;;;;;;;;;22.50;60.00;;;;;;483206;246;1248;-46
2021/09/28 10:11:33;;;;;;;;;;;22.50;60.00;;;;;;483788;246;1315;-47
2021/09/28 10:13:34;;;;;;;;;;;22.50;60.00;;;;;;484296;246;847;-47
2021/09/28 10:15:36;;;;;;;;;;;22.50;60.00;;;;;;484276;246;1229;-47
2021/09/28 10:17:39;;;;;;;;;;;22.50;60.00;;;;;;483781;246;1423;-46
2021/09/28 10:19:41;;;;;;;;;;;22.50;60.00;;;;;;484299;246;1081;-47
2021/09/28 10:21:43;;;;;;;;;;;22.40;60.20;;;;;;483599;246;2189;-46
2021/09/28 10:23:45;;;;;;;;;;;22.30;60.40;;;;;;483617;246;1338;-46
2021/09/28 10:25:47;;;;;;;;;;;22.40;60.40;;;;;;483471;246;1143;-46
2021/09/28 10:27:48;;;;;;;;;;;22.40;60.40;;;;;;483351;246;1407;-46
2021/09/28 10:29:52;;;;;;;;;;;22.40;60.40;;;;;;483442;246;1084;-46
2021/09/28 10:31:51;;;;;;;;;;;22.40;60.20;;;;;;483199;246;2365;-46
2021/09/28 10:33:53;;;;;;;;;;;22.50;60.00;;;;;;483327;246;1196;-46
2021/09/28 10:35:55;;;;;;;;;;;22.50;60.00;;;;;;482721;246;1118;-46
2021/09/28 10:37:56;;;;;;;;;;;22.50;60.00;;;;;;483378;246;1242;-46
2021/09/28 10:39:57;;;;;;;;;;;22.50;60.00;;;;;;483456;246;1140;-47
2021/09/28 10:42:01;;;;;;;;;;;22.60;60.00;;;;;;483424;246;2195;-46
2021/09/28 10:44:00;;;;;;;;;;;22.50;59.90;;;;;;483376;246;2282;-46
2021/09/28 10:46:03;;;;;;;;;;;22.50;59.90;;;;;;483527;246;1123;-46
2021/09/28 10:48:03;;;;;;;;;;;22.50;59.90;;;;;;483387;246;2207;-46
2021/09/28 10:50:04;;;;;;;;;;;22.50;59.90;;;;;;483467;246;2000;-46
2021/09/28 10:52:05;;;;;;;;;;;22.50;60.00;;;;;;483408;246;1213;-46
2021/09/28 10:54:07;;;;;;;;;;;22.50;60.00;;;;;;483534;246;1764;-46
2021/09/28 10:56:08;;;;;;;;;;;22.50;59.90;;;;;;483552;246;1358;-46
2021/09/28 10:58:11;;;;;;;;;;;22.50;60.00;;;;;;483547;246;1243;-45
2021/09/28 11:00:11;;;;;;;;;;;22.50;59.80;;;;;;484077;246;2290;-46
2021/09/28 11:02:12;;;;;;;;;;;22.50;60.00;;;;;;483216;246;2196;-46
2021/09/28 11:04:15;;;;;;;;;;;22.40;60.00;;;;;;483276;246;1589;-46
2021/09/28 11:06:16;;;;;;;;;;;22.50;60.00;;;;;;483260;246;1345;-46
2021/09/28 11:08:18;;;;;;;;;;;22.50;60.00;;;;;;483152;246;1356;-46
2021/09/28 11:10:19;;;;;;;;;;;22.50;59.90;;;;;;483767;246;2346;-46
2021/09/28 11:12:20;;;;;;;;;;;22.50;59.80;;;;;;484325;246;1041;-46
2021/09/28 11:14:23;;;;;;;;;;;22.50;59.80;;;;;;483435;246;1110;-46
2021/09/28 11:16:24;;;;;;;;;;;22.50;59.80;;;;;;483492;246;1353;-46
2021/09/28 11:18:25;;;;;;;;;;;22.50;59.90;;;;;;483534;246;1179;-46
2021/09/28 11:20:27;;;;;;;;;;;22.60;59.80;;;;;;483504;246;1273;-46
2021/09/28 11:22:28;;;;;;;;;;;22.50;59.80;;;;;;483490;246;2195;-46
2021/09/28 11:24:31;;;;;;;;;;;22.50;59.70;;;;;;483523;246;1166;-46
2021/09/28 11:26:32;;;;;;;;;;;22.50;59.70;;;;;;483542;246;1352;-46
2021/09/28 11:28:33;;;;;;;;;;;22.50;59.70;;;;;;483590;246;1217;-46
2021/09/28 11:30:35;;;;;;;;;;;22.50;59.70;;;;;;483678;246;1198;-46
2021/09/28 11:32:36;;;;;;;;;;;22.60;59.80;;;;;;483673;246;1268;-46
2021/09/28 11:34:37;;;;;;;;;;;22.50;59.70;;;;;;483620;246;1169;-47
2021/09/28 11:36:39;;;;;;;;;;;22.50;59.70;;;;;;483533;246;1293;-47
2021/09/28 11:38:40;;;;;;;;;;;22.50;59.80;;;;;;483612;246;1199;-47
2021/09/28 11:40:41;;;;;;;;;;;22.50;59.80;;;;;;483563;246;1209;-47
2021/09/28 11:42:43;;;;;;;;;;;22.50;59.80;;;;;;483474;246;2188;-47
2021/09/28 11:44:44;;;;;;;;;;;22.50;59.70;;;;;;483549;246;1199;-47
2021/09/28 11:46:45;;;;;;;;;;;22.50;59.80;;;;;;483617;246;1243;-47
2021/09/28 11:48:48;;;;;;;;;;;22.50;59.80;;;;;;484517;246;1409;-47
2021/09/28 11:50:48;;;;;;;;;;;22.60;59.70;;;;;;483704;246;2189;-47
2021/09/28 11:52:50;;;;;;;;;;;22.60;59.70;;;;;;483898;246;1210;-47
2021/09/28 11:54:51;;;;;;;;;;;22.60;59.70;;;;;;484217;246;1188;-47
2021/09/28 11:56:55;;;;;;;;;;;22.50;59.60;;;;;;483782;246;1151;-47
2021/09/28 11:58:54;;;;;;;;;;;22.50;59.70;;;;;;483816;246;2181;-47